Latest Weather Observations for Khancoban

IDN60801

Issued at 7:35 am EST Wednesday 1 October 2014 (issued every 30 minutes, with the page automatically refreshed every 10 minutes)

About weather observations | Map of weather stations | Latest weather observations for NSW | Other Formats
Station Details ID: 072162 Name: KHANCOBAN AWS Lat: -36.23 Lon: 148.14 Height: 339.3 m
Data from the previous 72 hours. | See also: Recent months at Khancoban
Date/Time
EST
Temp
°C
App
Temp
°C
Dew
Point
Rel
Hum
%
Delta-T
°C
Wind Press
QNH
hPa
Press
MSL
hPa
Rain
since 9 am
mm
Dir
 
Spd
km/h
Gust
km/h
Spd
kts
Gust
kts
01/07:30am 7.9 4.9 2.2 67 2.4 NNE 7 11 4 6 1020.0 1020.1 0.0
01/07:00am 6.1 3.3 2.9 80 1.3 NE 7 11 4 6 1019.7 1019.8 0.0
01/06:30am 4.1 2.0 2.0 86 0.9 NNE 2 7 1 4 1019.1 1019.2 0.0
01/06:00am 3.5 0.7 2.0 90 0.6 NE 6 7 3 4 1018.6 1018.7 0.0
01/05:30am 3.9 1.4 1.8 86 0.8 SE 4 7 2 4 1018.0 1018.2 0.0
01/05:00am 5.6 3.7 0.4 69 2.1 CALM 0 4 0 2 1017.1 1017.2 0.0
01/04:30am 5.6 3.2 -0.2 66 2.3 NW 2 9 1 5 1016.6 1016.7 0.0
01/04:00am 6.2 2.4 -0.5 62 2.6 NW 9 11 5 6 1016.3 1016.4 0.0
01/03:30am 6.4 1.9 -0.6 61 2.7 NW 13 19 7 10 1015.7 1015.8 0.0
01/03:00am 6.1 3.6 -0.8 61 2.7 NW 2 17 1 9 1015.3 1015.3 0.0
01/02:30am 6.5 1.5 -0.9 59 2.9 NNW 15 22 8 12 1014.7 1014.8 0.0
01/02:00am 6.8 2.2 -1.1 57 3.0 NW 13 17 7 9 1014.6 1014.7 0.0
01/01:30am 6.2 1.3 -0.7 61 2.7 NNW 15 19 8 10 1014.1 1014.2 0.0
01/01:00am 7.9 2.5 -1.1 53 3.5 NNW 17 22 9 12 1014.0 1014.1 0.0
01/12:30am 8.5 3.2 -0.5 53 3.6 NW 17 22 9 12 1013.9 1014.0 0.0
01/12:00am 9.9 3.7 -0.3 49 4.2 WNW 22 32 12 17 1013.6 1013.7 0.0
 
Date/Time
EST
Temp
°C
App
Temp
°C
Dew
Point
Rel
Hum
%
Delta-T
°C
Wind Press
QNH
hPa
Press
MSL
hPa
Rain
since 9 am
mm
Dir
 
Spd
km/h
Gust
km/h
Spd
kts
Gust
kts
30/11:30pm 11.0 5.3 0.7 49 4.3 NW 20 35 11 19 1012.4 1012.4 0.0
30/11:00pm 12.4 5.2 0.8 45 5.0 NW 28 52 15 28 1012.6 1012.6 0.0
30/10:30pm 12.8 5.8 4.3 56 3.9 NW 30 50 16 27 1012.1 1012.1 0.0
30/10:00pm 14.5 5.8 3.9 49 4.9 NW 39 61 21 33 1010.9 1011.0 0.0
30/09:52pm 15.0 7.1 4.4 49 5.0 NW 35 54 19 29 1010.8 1010.9 0.0
30/09:49pm 15.2 8.1 5.4 52 4.7 NW 32 44 17 24 1010.9 1011.0 0.0
30/09:46pm 15.4 7.3 5.3 51 4.9 W 37 48 20 26 1010.6 1010.7 0.0
30/09:33pm 15.5 8.0 6.5 55 4.5 NW 35 61 19 33 1010.0 1010.0 0.0
30/09:30pm 15.7 9.4 7.2 57 4.3 NW 30 39 16 21 1010.1 1010.1 0.0
30/09:00pm 17.4 9.5 6.3 48 5.6 W 37 65 20 35 1009.0 1009.0 0.0
30/08:48pm 18.0 11.9 6.5 47 5.8 WNW 28 48 15 26 1008.6 1008.7 0.0
30/08:30pm 18.1 13.6 6.9 48 5.7 NW 20 32 11 17 1007.9 1007.9 0.0
30/08:00pm 16.9 10.1 7.8 55 4.7 NW 33 54 18 29 1008.5 1008.6 0.0
30/07:58pm 17.3 10.1 7.6 53 5.0 NW 35 54 19 29 1008.4 1008.5 0.0
30/07:57pm 17.4 10.2 7.5 52 5.1 NW 35 44 19 24 1008.4 1008.5 0.0
30/07:44pm 18.5 9.5 6.4 45 6.1 W 43 65 23 35 1008.3 1008.4 0.0
30/07:36pm 19.4 12.8 6.2 42 6.7 NW 30 56 16 30 1008.0 1008.1 0.0
30/07:30pm 19.8 13.8 5.1 38 7.3 NW 26 39 14 21 1007.5 1007.5 0.0
30/07:00pm 19.9 14.4 5.9 40 7.1 N 24 41 13 22 1007.0 1007.0 0.0
30/06:30pm 19.1 15.1 6.6 44 6.4 N 17 32 9 17 1007.3 1007.3 0.0
30/06:00pm 19.3 15.0 6.8 44 6.4 N 19 28 10 15 1007.8 1007.8 0.0
30/05:30pm 19.7 15.1 6.4 42 6.8 NNW 20 32 11 17 1008.0 1008.1 0.0
30/05:00pm 19.4 14.2 7.2 45 6.3 NNW 24 35 13 19 1008.2 1008.3 0.0
30/04:30pm 20.7 14.6 6.6 40 7.2 NW 28 41 15 22 1008.4 1008.5 0.0
30/04:00pm 21.6 16.5 5.9 36 8.0 NW 22 30 12 16 1008.4 1008.5 0.0
30/03:30pm 20.9 14.6 5.7 37 7.7 NW 28 41 15 22 1008.7 1008.8 0.0
30/03:00pm 21.8 14.8 6.1 36 8.1 NNW 32 46 17 25 1008.5 1008.6 0.0
30/02:30pm 21.4 16.1 8.3 43 7.0 NW 26 44 14 24 1009.3 1009.3 0.0
30/02:09pm 22.1 16.2 10.3 47 6.5 NNW 32 50 17 27 1009.4 1009.4 0.0
30/02:00pm 22.0 15.3 7.4 39 7.7 NNW 32 44 17 24 1009.4 1009.4 0.0
30/01:40pm 21.9 16.0 7.3 39 7.7 NW 28 46 15 25 1009.9 1009.9 0.0
30/01:30pm 22.2 18.3 10.7 48 6.4 NW 22 32 12 17 1010.2 1010.2 0.0
30/01:00pm 21.9 17.5 10.4 48 6.4 NNW 24 35 13 19 1010.8 1010.9 0.0
30/12:30pm 21.8 16.5 9.7 46 6.6 NNW 28 35 15 19 1011.3 1011.4 0.0
30/12:00pm 21.6 17.2 10.4 49 6.2 WNW 24 35 13 19 1011.7 1011.8 0.0
30/11:43am 21.3 15.7 8.6 44 6.8 NNW 28 46 15 25 1011.7 1011.8 0.0
30/11:30am 21.6 17.5 10.1 48 6.3 NNW 22 33 12 18 1011.9 1012.0 0.0
30/11:00am 19.1 18.6 12.1 64 4.0 W 6 11 3 6 1012.3 1012.3 0.0
30/10:30am 17.3 16.7 10.4 64 3.7 WNW 4 7 2 4 1012.9 1012.9 0.0
30/10:00am 16.3 16.2 10.8 70 3.0 WNW 2 7 1 4 1013.4 1013.5 0.0
30/09:30am 14.6 13.7 7.9 64 3.4 WNW 2 6 1 3 1013.9 1014.0 0.0
30/09:00am 12.9 12.4 8.0 72 2.5 CALM 0 0 0 0 1014.2 1014.3 0.0
30/08:30am 11.4 9.9 8.4 82 1.5 SW 6 9 3 5 1014.7 1014.8 0.0
30/08:00am 9.8 9.1 8.4 91 0.7 NNE 2 6 1 3 1014.9 1015.0 0.0
30/07:30am 8.3 7.9 8.2 99 0.0 CALM 0 0 0 0 1014.8 1014.9 0.0
30/07:00am 6.9 6.2 6.9 100 0.0 CALM 0 0 0 0 1014.7 1014.8 0.0
30/06:30am 5.1 4.0 5.1 100 0.0 CALM 0 0 0 0 1014.7 1014.8 0.0
30/06:00am 5.0 3.9 5.0 100 0.0 CALM 0 0 0 0 1014.4 1014.5 0.0
30/05:30am 5.2 4.1 5.2 100 0.0 CALM 0 0 0 0 1014.4 1014.5 0.0
30/05:00am 5.6 4.6 5.6 100 0.0 CALM 0 7 0 4 1014.1 1014.2 0.0
30/04:30am 5.6 3.5 5.6 100 0.0 NNE 6 13 3 7 1014.0 1014.1 0.0
30/04:00am 6.1 5.2 6.1 100 0.0 CALM 0 0 0 0 1013.7 1013.8 0.0
30/03:30am 5.9 5.0 5.9 100 0.0 CALM 0 0 0 0 1014.2 1014.3 0.0
30/03:00am 6.6 5.4 6.6 100 0.0 ENE 2 13 1 7 1014.3 1014.4 0.0
30/02:30am 4.5 2.1 4.5 100 0.0 NNW 6 15 3 8 1014.6 1014.7 0.0
30/02:00am 6.4 4.8 6.3 99 0.0 NNE 4 7 2 4 1014.9 1015.0 0.0
30/01:30am 6.4 5.6 6.4 100 0.0 CALM 0 0 0 0 1015.3 1015.3 0.0
30/01:00am 7.1 5.3 7.1 100 0.0 W 6 9 3 5 1015.3 1015.3 0.0
30/12:30am 6.8 4.9 6.7 99 0.0 SSE 6 9 3 5 1015.3 1015.3 0.0
30/12:00am 7.4 6.4 7.3 99 0.0 NE 2 6 1 3 1015.3 1015.3 0.0
 
Date/Time
EST
Temp
°C
App
Temp
°C
Dew
Point
Rel
Hum
%
Delta-T
°C
Wind Press
QNH
hPa
Press
MSL
hPa
Rain
since 9 am
mm
Dir
 
Spd
km/h
Gust
km/h
Spd
kts
Gust
kts
29/11:30pm 8.1 7.6 8.0 99 0.0 CALM 0 0 0 0 1015.6 1015.7 0.0
29/11:00pm 8.5 7.3 7.9 96 0.3 N 4 6 2 3 1015.8 1015.9 0.0
29/10:30pm 8.6 8.0 7.5 93 0.5 CALM 0 0 0 0 1016.0 1016.1 0.0
29/10:00pm 9.0 8.1 7.6 91 0.7 N 2 6 1 3 1016.2 1016.3 0.0
29/09:30pm 10.0 8.3 7.4 84 1.3 N 6 7 3 4 1016.3 1016.4 0.0
29/09:00pm 9.8 8.8 7.4 85 1.2 S 2 6 1 3 1016.1 1016.2 0.0
29/08:30pm 11.9 11.3 7.2 73 2.3 CALM 0 7 0 4 1015.9 1016.0 0.0
29/08:00pm 11.8 11.0 6.5 70 2.6 CALM 0 0 0 0 1015.7 1015.8 0.0
29/07:30pm 11.6 9.5 6.7 72 2.4 S 7 9 4 5 1015.4 1015.4 0.0
29/07:00pm 13.2 12.3 5.9 61 3.5 CALM 0 0 0 0 1014.9 1015.0 0.0
29/06:30pm 13.6 11.9 5.7 59 3.8 E 4 7 2 4 1014.7 1014.8 0.0
29/06:00pm 17.7 16.6 5.3 44 6.1 CALM 0 0 0 0 1014.4 1014.5 0.0
29/05:30pm 19.2 15.4 3.8 36 7.4 NNW 13 17 7 9 1014.2 1014.3 0.0
29/05:00pm 20.1 15.7 5.0 37 7.5 NNW 17 24 9 13 1014.0 1014.1 0.0
29/04:30pm 20.9 17.0 7.2 41 7.1 NW 17 22 9 12 1013.8 1013.9 0.0
29/04:00pm 21.5 16.7 5.4 35 8.1 NNW 20 28 11 15 1013.6 1013.7 0.0
29/03:30pm 21.6 16.0 5.5 35 8.2 NW 24 32 13 17 1013.5 1013.6 0.0
29/03:00pm 22.2 17.7 6.8 37 8.0 NW 20 28 11 15 1013.4 1013.5 0.0
29/02:30pm 22.3 17.9 7.3 38 7.9 NW 20 28 11 15 1013.5 1013.6 0.0
29/02:00pm 22.4 18.4 8.9 42 7.3 NW 20 28 11 15 1013.6 1013.7 0.0
29/01:30pm 22.6 19.2 10.4 46 6.8 NW 19 28 10 15 1013.8 1013.9 0.0
29/01:00pm 22.1 17.4 9.3 44 7.0 NNW 24 28 13 15 1013.9 1014.0 0.0
29/12:30pm 22.2 19.1 9.0 43 7.2 NW 15 24 8 13 1014.0 1014.1 0.0
29/12:00pm 21.9 19.4 12.2 54 5.6 WNW 17 24 9 13 1014.2 1014.3 0.0
29/11:30am 21.3 18.4 9.5 47 6.4 WNW 15 24 8 13 1014.2 1014.3 0.0
29/11:00am 21.0 19.0 11.6 55 5.3 WNW 13 19 7 10 1014.4 1014.5 0.0
29/10:30am 20.7 18.7 10.2 51 5.8 N 11 17 6 9 1014.5 1014.6 0.0
29/10:00am 20.5 19.1 8.8 47 6.3 S 6 7 3 4 1014.6 1014.7 0.0
29/09:30am 19.8 18.1 8.2 47 6.1 E 7 13 4 7 1014.5 1014.6 0.0
29/09:00am 18.9 17.4 9.1 53 5.2 NNW 7 11 4 6 1014.7 1014.8 0.0
29/08:30am 17.9 15.9 7.0 49 5.5 NNE 7 13 4 7 1014.7 1014.8 0.0
29/08:00am 14.9 15.7 13.8 93 0.6 WNW 2 6 1 3 1014.5 1014.6 0.0
29/07:30am 12.8 13.0 12.0 95 0.4 S 2 7 1 4 1014.4 1014.5 0.0
29/07:00am 10.5 10.7 10.5 100 0.0 CALM 0 6 0 3 1014.9 1015.0 0.0
29/06:30am 8.8 7.2 8.8 100 0.0 N 7 9 4 5 1014.8 1014.9 0.0
29/06:00am 8.7 7.7 8.7 100 0.0 N 4 7 2 4 1014.2 1014.3 0.0
29/05:30am 9.4 8.2 9.4 100 0.0 S 6 11 3 6 1013.9 1014.0 0.0
29/05:00am 9.6 9.2 9.6 100 0.0 NNE 2 6 1 3 1013.8 1013.9 0.0
29/04:30am 9.5 8.3 9.5 100 0.0 SSW 6 9 3 5 1013.5 1013.6 0.0
29/04:00am 9.9 8.8 9.9 100 0.0 ENE 6 7 3 4 1013.0 1013.0 0.0
29/03:30am 9.5 9.0 9.5 100 0.0 NE 2 9 1 5 1013.0 1013.0 0.0
29/03:00am 9.8 8.5 9.8 100 0.0 NNE 7 9 4 5 1012.5 1012.5 0.0
29/02:30am 9.6 9.5 9.6 100 0.0 CALM 0 0 0 0 1012.7 1012.7 0.0
29/02:00am 8.6 8.3 8.6 100 0.0 CALM 0 6 0 3 1013.2 1013.3 0.0
29/01:30am 8.2 7.8 8.2 100 0.0 CALM 0 7 0 4 1013.4 1013.5 0.0
29/01:00am 9.4 8.9 9.4 100 0.0 NNW 2 7 1 4 1013.5 1013.6 0.0
29/12:30am 9.3 8.8 9.3 100 0.0 NNW 2 7 1 4 1013.7 1013.8 0.0
29/12:00am 9.4 8.5 9.4 100 0.0 NNW 4 7 2 4 1014.2 1014.3 0.0
 
Date/Time
EST
Temp
°C
App
Temp
°C
Dew
Point
Rel
Hum
%
Delta-T
°C
Wind Press
QNH
hPa
Press
MSL
hPa
Rain
since 9 am
mm
Dir
 
Spd
km/h
Gust
km/h
Spd
kts
Gust
kts
28/11:30pm 9.1 7.8 9.1 100 0.0 NW 6 9 3 5 1014.2 1014.3 0.0
28/11:00pm 10.3 9.3 10.3 100 0.0 SSE 6 7 3 4 1014.7 1014.8 0.0
28/10:30pm 10.7 9.6 10.7 100 0.0 NNE 7 11 4 6 1014.6 1014.7 0.0
28/10:00pm 10.5 10.6 10.0 97 0.3 CALM 0 6 0 3 1015.0 1015.1 0.0
28/09:30pm 11.3 10.5 11.0 98 0.2 S 6 7 3 4 1015.3 1015.3 0.0
28/09:00pm 11.8 12.3 11.6 99 0.1 CALM 0 0 0 0 1015.3 1015.3 0.0
28/08:30pm 12.3 12.3 12.3 100 0.0 N 4 9 2 5 1015.4 1015.4 0.0
28/08:00pm 12.7 11.9 11.8 94 0.5 SW 7 11 4 6 1015.3 1015.3 0.0
28/07:30pm 15.0 14.4 11.8 81 1.8 W 6 9 3 5 1014.8 1014.9 0.0
28/07:00pm 18.2 15.6 10.6 61 4.1 NE 15 24 8 13 1014.6 1014.7 0.0
28/06:30pm 17.6 15.3 10.5 63 3.9 NNE 13 17 7 9 1015.2 1015.2 0.0
28/06:00pm 18.4 16.9 10.7 61 4.2 NNE 9 13 5 7 1015.3 1015.3 0.0
28/05:30pm 19.2 15.9 11.0 59 4.5 N 19 22 10 12 1015.0 1015.1 0.0
28/05:00pm 20.3 18.5 12.0 59 4.7 NW 13 20 7 11 1014.8 1014.9 0.0
28/04:30pm 21.3 19.2 11.1 52 5.7 WNW 13 19 7 10 1014.8 1014.9 0.0
28/04:00pm 21.6 19.8 12.2 55 5.4 W 13 19 7 10 1014.7 1014.8 0.0
28/03:30pm 22.1 20.7 12.1 53 5.7 NW 11 19 6 10 1014.8 1014.9 0.0
28/03:00pm 21.9 20.9 10.4 48 6.4 W 6 15 3 8 1015.0 1015.1 0.0
28/02:30pm 21.9 20.8 11.9 53 5.7 WNW 9 13 5 7 1015.8 1015.9 0.0
28/02:00pm 21.4 19.9 10.6 50 6.0 WNW 9 15 5 8 1016.5 1016.6 0.0
28/01:30pm 21.1 19.5 11.4 54 5.5 W 11 19 6 10 1017.0 1017.1 0.0
28/01:00pm 20.7 18.9 10.8 53 5.5 WNW 11 17 6 9 1017.8 1017.9 0.0
28/12:30pm 20.2 18.3 12.9 63 4.2 WNW 15 20 8 11 1018.6 1018.7 0.0
28/12:00pm 19.2 18.4 11.7 62 4.2 WNW 7 11 4 6 1019.0 1019.1 0.0
28/11:30am 18.4 17.9 11.9 66 3.6 WNW 6 11 3 6 1019.6 1019.7 0.0
28/11:00am 17.2 16.1 10.6 65 3.6 W 7 11 4 6 1020.2 1020.3 0.0
28/10:30am 16.3 15.8 11.9 75 2.4 NW 6 9 3 5 1021.0 1021.2 0.0
28/10:00am 15.1 14.1 10.3 73 2.6 WNW 6 11 3 6 1021.3 1021.5 0.0
28/09:30am 14.1 14.2 11.6 85 1.4 WNW 2 7 1 4 1021.7 1021.8 0.0
28/09:00am 12.3 11.5 10.9 91 0.7 NNW 6 7 3 4 1022.2 1022.3 0.2
28/08:30am 10.6 10.1 10.6 100 0.0 NNE 4 7 2 4 1022.3 1022.4 0.2
28/08:00am 8.5 7.0 8.5 100 0.0 NNE 6 7 3 4 1022.5 1022.6 0.2

Other Formats:

Comma delimited format used in spreadsheet applications
http://www.bom.gov.au/fwo/IDN60801/IDN60801.94919.axf

JavaScript Object Notation format (JSON) in row-major order
http://www.bom.gov.au/fwo/IDN60801/IDN60801.94919.json